sensor_id;sensor_type;location;lat;lon;timestamp;P1;durP1;ratioP1;P2;durP2;ratioP2
11183;SDS011;5648;43.628;22.684;2022-07-10T00:01:30;4.43;;;3.67;;
11183;SDS011;5648;43.628;22.684;2022-07-10T00:03:56;4.63;;;3.00;;
11183;SDS011;5648;43.628;22.684;2022-07-10T00:06:22;4.20;;;3.30;;
11183;SDS011;5648;43.628;22.684;2022-07-10T00:08:47;4.07;;;2.92;;
11183;SDS011;5648;43.628;22.684;2022-07-10T00:11:12;5.57;;;3.20;;
11183;SDS011;5648;43.628;22.684;2022-07-10T00:13:38;5.03;;;3.50;;
11183;SDS011;5648;43.628;22.684;2022-07-10T00:16:03;5.72;;;3.53;;
11183;SDS011;5648;43.628;22.684;2022-07-10T00:18:29;3.58;;;3.03;;
11183;SDS011;5648;43.628;22.684;2022-07-10T00:20:55;4.82;;;3.08;;
11183;SDS011;5648;43.628;22.684;2022-07-10T00:23:21;4.32;;;3.08;;
11183;SDS011;5648;43.628;22.684;2022-07-10T00:25:46;3.38;;;3.10;;
11183;SDS011;5648;43.628;22.684;2022-07-10T00:28:12;3.70;;;3.08;;
11183;SDS011;5648;43.628;22.684;2022-07-10T00:30:37;4.20;;;3.00;;
11183;SDS011;5648;43.628;22.684;2022-07-10T00:33:03;4.13;;;3.22;;
11183;SDS011;5648;43.628;22.684;2022-07-10T00:35:29;3.63;;;3.22;;
11183;SDS011;5648;43.628;22.684;2022-07-10T00:37:55;6.90;;;3.65;;
11183;SDS011;5648;43.628;22.684;2022-07-10T00:40:21;5.18;;;3.10;;
11183;SDS011;5648;43.628;22.684;2022-07-10T00:42:46;5.10;;;3.70;;
11183;SDS011;5648;43.628;22.684;2022-07-10T00:45:12;5.70;;;3.25;;
11183;SDS011;5648;43.628;22.684;2022-07-10T00:47:38;3.88;;;3.58;;
11183;SDS011;5648;43.628;22.684;2022-07-10T00:50:04;4.32;;;3.35;;
11183;SDS011;5648;43.628;22.684;2022-07-10T00:52:31;4.18;;;2.90;;
11183;SDS011;5648;43.628;22.684;2022-07-10T00:55:00;3.47;;;3.25;;
11183;SDS011;5648;43.628;22.684;2022-07-10T00:57:27;4.20;;;3.25;;
11183;SDS011;5648;43.628;22.684;2022-07-10T00:59:52;3.58;;;3.17;;
11183;SDS011;5648;43.628;22.684;2022-07-10T01:02:19;4.65;;;3.25;;
11183;SDS011;5648;43.628;22.684;2022-07-10T01:04:45;3.47;;;3.10;;
11183;SDS011;5648;43.628;22.684;2022-07-10T01:07:11;6.78;;;3.60;;
11183;SDS011;5648;43.628;22.684;2022-07-10T01:09:40;6.80;;;3.72;;
11183;SDS011;5648;43.628;22.684;2022-07-10T01:12:06;3.80;;;3.20;;
11183;SDS011;5648;43.628;22.684;2022-07-10T01:14:33;3.80;;;3.30;;
11183;SDS011;5648;43.628;22.684;2022-07-10T01:17:00;4.82;;;3.08;;
11183;SDS011;5648;43.628;22.684;2022-07-10T01:19:26;3.45;;;3.15;;
11183;SDS011;5648;43.628;22.684;2022-07-10T01:21:52;3.22;;;2.88;;
11183;SDS011;5648;43.628;22.684;2022-07-10T01:24:18;3.63;;;3.33;;
11183;SDS011;5648;43.628;22.684;2022-07-10T01:26:43;3.50;;;3.20;;
11183;SDS011;5648;43.628;22.684;2022-07-10T01:29:09;3.55;;;3.25;;
11183;SDS011;5648;43.628;22.684;2022-07-10T01:31:36;3.47;;;3.10;;
11183;SDS011;5648;43.628;22.684;2022-07-10T01:34:04;3.28;;;2.97;;
11183;SDS011;5648;43.628;22.684;2022-07-10T01:36:31;8.38;;;3.50;;
11183;SDS011;5648;43.628;22.684;2022-07-10T01:38:57;3.47;;;3.20;;
11183;SDS011;5648;43.628;22.684;2022-07-10T01:41:24;3.83;;;3.08;;
11183;SDS011;5648;43.628;22.684;2022-07-10T01:43:50;3.65;;;3.28;;
11183;SDS011;5648;43.628;22.684;2022-07-10T01:46:16;3.53;;;3.20;;
11183;SDS011;5648;43.628;22.684;2022-07-10T01:48:42;2.97;;;2.67;;
11183;SDS011;5648;43.628;22.684;2022-07-10T01:51:08;7.10;;;3.28;;
11183;SDS011;5648;43.628;22.684;2022-07-10T01:53:35;2.90;;;2.70;;
11183;SDS011;5648;43.628;22.684;2022-07-10T01:56:03;3.92;;;2.90;;
11183;SDS011;5648;43.628;22.684;2022-07-10T01:58:30;2.95;;;2.75;;
11183;SDS011;5648;43.628;22.684;2022-07-10T02:00:55;3.10;;;2.90;;
11183;SDS011;5648;43.628;22.684;2022-07-10T02:03:21;3.38;;;2.90;;
11183;SDS011;5648;43.628;22.684;2022-07-10T02:06:06;3.75;;;2.90;;
11183;SDS011;5648;43.628;22.684;2022-07-10T02:08:32;4.00;;;2.47;;
11183;SDS011;5648;43.628;22.684;2022-07-10T02:10:58;2.70;;;2.53;;
11183;SDS011;5648;43.628;22.684;2022-07-10T02:13:23;3.35;;;2.67;;
11183;SDS011;5648;43.628;22.684;2022-07-10T02:15:52;3.30;;;2.58;;
11183;SDS011;5648;43.628;22.684;2022-07-10T02:18:21;2.80;;;2.60;;
11183;SDS011;5648;43.628;22.684;2022-07-10T02:20:47;3.22;;;2.70;;
11183;SDS011;5648;43.628;22.684;2022-07-10T02:23:12;5.65;;;2.70;;
11183;SDS011;5648;43.628;22.684;2022-07-10T02:25:38;2.88;;;2.63;;
11183;SDS011;5648;43.628;22.684;2022-07-10T02:28:04;3.42;;;2.45;;
11183;SDS011;5648;43.628;22.684;2022-07-10T02:30:30;2.92;;;2.40;;
11183;SDS011;5648;43.628;22.684;2022-07-10T02:32:56;2.72;;;2.40;;
11183;SDS011;5648;43.628;22.684;2022-07-10T02:35:22;3.08;;;2.40;;
11183;SDS011;5648;43.628;22.684;2022-07-10T02:37:47;2.72;;;2.53;;
11183;SDS011;5648;43.628;22.684;2022-07-10T02:40:13;5.50;;;2.15;;
11183;SDS011;5648;43.628;22.684;2022-07-10T02:42:38;2.70;;;2.22;;
11183;SDS011;5648;43.628;22.684;2022-07-10T02:45:03;2.60;;;2.10;;
11183;SDS011;5648;43.628;22.684;2022-07-10T02:47:29;3.67;;;2.30;;
11183;SDS011;5648;43.628;22.684;2022-07-10T02:49:55;3.90;;;2.10;;
11183;SDS011;5648;43.628;22.684;2022-07-10T02:52:20;3.35;;;2.00;;
11183;SDS011;5648;43.628;22.684;2022-07-10T02:54:46;3.35;;;2.03;;
11183;SDS011;5648;43.628;22.684;2022-07-10T02:57:11;2.47;;;2.25;;
11183;SDS011;5648;43.628;22.684;2022-07-10T02:59:37;2.00;;;1.90;;
11183;SDS011;5648;43.628;22.684;2022-07-10T03:02:02;2.20;;;2.10;;
11183;SDS011;5648;43.628;22.684;2022-07-10T03:04:28;3.33;;;2.17;;
11183;SDS011;5648;43.628;22.684;2022-07-10T03:06:54;2.60;;;1.77;;
11183;SDS011;5648;43.628;22.684;2022-07-10T03:09:19;2.50;;;2.03;;
11183;SDS011;5648;43.628;22.684;2022-07-10T03:11:45;4.18;;;2.10;;
11183;SDS011;5648;43.628;22.684;2022-07-10T03:14:10;3.20;;;2.15;;
11183;SDS011;5648;43.628;22.684;2022-07-10T03:16:36;5.60;;;2.10;;
11183;SDS011;5648;43.628;22.684;2022-07-10T03:19:01;3.30;;;2.03;;
11183;SDS011;5648;43.628;22.684;2022-07-10T03:21:27;3.05;;;1.98;;
11183;SDS011;5648;43.628;22.684;2022-07-10T03:23:52;3.05;;;2.25;;
11183;SDS011;5648;43.628;22.684;2022-07-10T03:26:18;2.63;;;2.17;;
11183;SDS011;5648;43.628;22.684;2022-07-10T03:28:43;3.00;;;2.30;;
11183;SDS011;5648;43.628;22.684;2022-07-10T03:31:09;4.22;;;2.20;;
11183;SDS011;5648;43.628;22.684;2022-07-10T03:33:35;3.50;;;2.22;;
11183;SDS011;5648;43.628;22.684;2022-07-10T03:36:00;4.43;;;2.33;;
11183;SDS011;5648;43.628;22.684;2022-07-10T03:38:28;2.50;;;2.30;;
11183;SDS011;5648;43.628;22.684;2022-07-10T03:40:54;8.07;;;2.30;;
11183;SDS011;5648;43.628;22.684;2022-07-10T03:43:19;4.70;;;2.15;;
11183;SDS011;5648;43.628;22.684;2022-07-10T03:45:45;4.43;;;1.85;;
11183;SDS011;5648;43.628;22.684;2022-07-10T03:48:11;4.35;;;2.00;;
11183;SDS011;5648;43.628;22.684;2022-07-10T03:50:36;2.20;;;2.00;;
11183;SDS011;5648;43.628;22.684;2022-07-10T03:53:02;3.63;;;1.73;;
11183;SDS011;5648;43.628;22.684;2022-07-10T03:55:28;4.75;;;1.90;;
11183;SDS011;5648;43.628;22.684;2022-07-10T03:57:53;2.75;;;2.00;;
11183;SDS011;5648;43.628;22.684;2022-07-10T04:00:22;4.03;;;2.15;;
11183;SDS011;5648;43.628;22.684;2022-07-10T04:02:53;4.50;;;2.00;;
11183;SDS011;5648;43.628;22.684;2022-07-10T04:05:20;2.33;;;1.95;;
11183;SDS011;5648;43.628;22.684;2022-07-10T04:07:46;3.90;;;2.10;;
11183;SDS011;5648;43.628;22.684;2022-07-10T04:10:11;4.30;;;1.95;;
11183;SDS011;5648;43.628;22.684;2022-07-10T04:12:37;2.20;;;2.10;;
11183;SDS011;5648;43.628;22.684;2022-07-10T04:15:03;3.10;;;1.92;;
11183;SDS011;5648;43.628;22.684;2022-07-10T04:17:29;7.25;;;2.20;;
11183;SDS011;5648;43.628;22.684;2022-07-10T04:19:57;2.50;;;2.05;;
11183;SDS011;5648;43.628;22.684;2022-07-10T04:22:23;3.20;;;1.90;;
11183;SDS011;5648;43.628;22.684;2022-07-10T04:24:50;2.05;;;1.85;;
11183;SDS011;5648;43.628;22.684;2022-07-10T04:27:15;3.85;;;2.45;;
11183;SDS011;5648;43.628;22.684;2022-07-10T04:29:42;3.15;;;2.63;;
11183;SDS011;5648;43.628;22.684;2022-07-10T04:32:08;2.88;;;1.67;;
11183;SDS011;5648;43.628;22.684;2022-07-10T04:34:33;2.65;;;2.20;;
11183;SDS011;5648;43.628;22.684;2022-07-10T04:36:59;2.40;;;2.20;;
11183;SDS011;5648;43.628;22.684;2022-07-10T04:39:25;4.47;;;2.40;;
11183;SDS011;5648;43.628;22.684;2022-07-10T04:41:51;7.72;;;2.20;;
11183;SDS011;5648;43.628;22.684;2022-07-10T04:44:17;2.15;;;1.70;;
11183;SDS011;5648;43.628;22.684;2022-07-10T04:46:42;4.43;;;2.17;;
11183;SDS011;5648;43.628;22.684;2022-07-10T04:49:08;6.20;;;2.83;;
11183;SDS011;5648;43.628;22.684;2022-07-10T04:51:34;2.40;;;2.20;;
11183;SDS011;5648;43.628;22.684;2022-07-10T04:54:00;5.80;;;2.17;;
11183;SDS011;5648;43.628;22.684;2022-07-10T04:56:25;5.57;;;2.05;;
11183;SDS011;5648;43.628;22.684;2022-07-10T04:58:51;6.20;;;2.45;;
11183;SDS011;5648;43.628;22.684;2022-07-10T05:01:16;2.50;;;2.25;;
11183;SDS011;5648;43.628;22.684;2022-07-10T05:03:42;2.58;;;2.30;;
11183;SDS011;5648;43.628;22.684;2022-07-10T05:06:08;2.00;;;1.80;;
11183;SDS011;5648;43.628;22.684;2022-07-10T05:08:33;5.38;;;2.40;;
11183;SDS011;5648;43.628;22.684;2022-07-10T05:10:59;1.80;;;1.70;;
11183;SDS011;5648;43.628;22.684;2022-07-10T05:13:24;3.42;;;2.05;;
11183;SDS011;5648;43.628;22.684;2022-07-10T05:15:50;4.18;;;2.10;;
11183;SDS011;5648;43.628;22.684;2022-07-10T05:18:16;1.88;;;1.77;;
11183;SDS011;5648;43.628;22.684;2022-07-10T05:20:41;2.40;;;2.05;;
11183;SDS011;5648;43.628;22.684;2022-07-10T05:23:08;2.35;;;1.80;;
11183;SDS011;5648;43.628;22.684;2022-07-10T05:25:35;7.93;;;2.72;;
11183;SDS011;5648;43.628;22.684;2022-07-10T05:28:02;4.80;;;2.28;;
11183;SDS011;5648;43.628;22.684;2022-07-10T05:30:29;3.33;;;2.13;;
11183;SDS011;5648;43.628;22.684;2022-07-10T05:32:55;2.00;;;1.90;;
11183;SDS011;5648;43.628;22.684;2022-07-10T05:35:20;4.70;;;2.22;;
11183;SDS011;5648;43.628;22.684;2022-07-10T05:37:46;2.25;;;2.13;;
11183;SDS011;5648;43.628;22.684;2022-07-10T05:40:12;5.10;;;2.28;;
11183;SDS011;5648;43.628;22.684;2022-07-10T05:42:37;2.22;;;2.13;;
11183;SDS011;5648;43.628;22.684;2022-07-10T05:45:03;2.10;;;2.00;;
11183;SDS011;5648;43.628;22.684;2022-07-10T05:47:30;4.93;;;2.08;;
11183;SDS011;5648;43.628;22.684;2022-07-10T05:49:56;2.47;;;2.05;;
11183;SDS011;5648;43.628;22.684;2022-07-10T05:52:22;2.42;;;2.22;;
11183;SDS011;5648;43.628;22.684;2022-07-10T05:54:47;2.40;;;2.10;;
11183;SDS011;5648;43.628;22.684;2022-07-10T05:57:13;4.88;;;1.92;;
11183;SDS011;5648;43.628;22.684;2022-07-10T05:59:38;2.28;;;2.00;;
11183;SDS011;5648;43.628;22.684;2022-07-10T06:02:04;3.17;;;2.25;;
11183;SDS011;5648;43.628;22.684;2022-07-10T06:04:29;3.35;;;1.90;;
11183;SDS011;5648;43.628;22.684;2022-07-10T06:06:55;2.60;;;1.83;;
11183;SDS011;5648;43.628;22.684;2022-07-10T06:09:21;3.63;;;2.20;;
11183;SDS011;5648;43.628;22.684;2022-07-10T06:11:46;4.40;;;1.80;;
11183;SDS011;5648;43.628;22.684;2022-07-10T06:14:13;4.28;;;1.83;;
11183;SDS011;5648;43.628;22.684;2022-07-10T06:16:39;1.80;;;1.70;;
11183;SDS011;5648;43.628;22.684;2022-07-10T06:19:05;2.60;;;1.75;;
11183;SDS011;5648;43.628;22.684;2022-07-10T06:21:30;1.98;;;1.80;;
11183;SDS011;5648;43.628;22.684;2022-07-10T06:23:56;1.70;;;1.60;;
11183;SDS011;5648;43.628;22.684;2022-07-10T06:26:22;4.05;;;2.10;;
11183;SDS011;5648;43.628;22.684;2022-07-10T06:28:47;3.53;;;1.58;;
11183;SDS011;5648;43.628;22.684;2022-07-10T06:31:13;2.53;;;1.73;;
11183;SDS011;5648;43.628;22.684;2022-07-10T06:33:38;2.22;;;1.60;;
11183;SDS011;5648;43.628;22.684;2022-07-10T06:36:04;2.60;;;1.70;;
11183;SDS011;5648;43.628;22.684;2022-07-10T06:38:30;3.78;;;1.80;;
11183;SDS011;5648;43.628;22.684;2022-07-10T06:40:56;5.32;;;2.15;;
11183;SDS011;5648;43.628;22.684;2022-07-10T06:43:22;2.85;;;2.00;;
11183;SDS011;5648;43.628;22.684;2022-07-10T06:45:48;3.08;;;1.67;;
11183;SDS011;5648;43.628;22.684;2022-07-10T06:48:13;2.42;;;1.85;;
11183;SDS011;5648;43.628;22.684;2022-07-10T06:50:39;2.30;;;1.80;;
11183;SDS011;5648;43.628;22.684;2022-07-10T06:53:05;3.00;;;1.83;;
11183;SDS011;5648;43.628;22.684;2022-07-10T06:55:31;1.92;;;1.48;;
11183;SDS011;5648;43.628;22.684;2022-07-10T06:57:57;3.28;;;1.58;;
11183;SDS011;5648;43.628;22.684;2022-07-10T07:00:23;4.60;;;1.77;;
11183;SDS011;5648;43.628;22.684;2022-07-10T07:02:49;2.38;;;1.83;;
11183;SDS011;5648;43.628;22.684;2022-07-10T07:05:15;5.97;;;1.80;;
11183;SDS011;5648;43.628;22.684;2022-07-10T07:07:41;2.88;;;1.63;;
11183;SDS011;5648;43.628;22.684;2022-07-10T07:10:07;5.50;;;2.50;;
11183;SDS011;5648;43.628;22.684;2022-07-10T07:12:34;3.70;;;1.70;;
11183;SDS011;5648;43.628;22.684;2022-07-10T07:14:59;1.33;;;1.23;;
11183;SDS011;5648;43.628;22.684;2022-07-10T07:17:25;2.88;;;1.95;;
11183;SDS011;5648;43.628;22.684;2022-07-10T07:19:58;1.98;;;1.65;;
11183;SDS011;5648;43.628;22.684;2022-07-10T07:22:44;1.88;;;1.77;;
11183;SDS011;5648;43.628;22.684;2022-07-10T07:25:28;2.05;;;1.85;;
11183;SDS011;5648;43.628;22.684;2022-07-10T07:27:54;1.80;;;1.65;;
11183;SDS011;5648;43.628;22.684;2022-07-10T07:30:20;3.03;;;1.63;;
11183;SDS011;5648;43.628;22.684;2022-07-10T07:32:45;1.85;;;1.63;;
11183;SDS011;5648;43.628;22.684;2022-07-10T07:35:13;4.05;;;1.58;;
11183;SDS011;5648;43.628;22.684;2022-07-10T07:37:44;2.47;;;1.60;;
11183;SDS011;5648;43.628;22.684;2022-07-10T07:40:15;1.92;;;1.83;;
11183;SDS011;5648;43.628;22.684;2022-07-10T07:42:45;2.65;;;1.58;;
11183;SDS011;5648;43.628;22.684;2022-07-10T07:45:11;2.60;;;1.70;;
11183;SDS011;5648;43.628;22.684;2022-07-10T07:47:43;2.25;;;1.40;;
11183;SDS011;5648;43.628;22.684;2022-07-10T07:50:12;2.65;;;1.85;;
11183;SDS011;5648;43.628;22.684;2022-07-10T07:52:41;2.88;;;1.52;;
11183;SDS011;5648;43.628;22.684;2022-07-10T07:55:06;2.35;;;1.55;;
11183;SDS011;5648;43.628;22.684;2022-07-10T07:57:33;2.30;;;1.40;;
11183;SDS011;5648;43.628;22.684;2022-07-10T07:59:58;1.35;;;1.25;;
11183;SDS011;5648;43.628;22.684;2022-07-10T08:02:24;1.90;;;1.33;;
11183;SDS011;5648;43.628;22.684;2022-07-10T08:04:49;1.50;;;1.40;;
11183;SDS011;5648;43.628;22.684;2022-07-10T08:07:14;3.88;;;1.50;;
11183;SDS011;5648;43.628;22.684;2022-07-10T08:09:40;0.95;;;0.93;;
11183;SDS011;5648;43.628;22.684;2022-07-10T08:12:06;3.72;;;1.20;;
11183;SDS011;5648;43.628;22.684;2022-07-10T08:14:31;1.63;;;1.15;;
11183;SDS011;5648;43.628;22.684;2022-07-10T08:16:57;2.58;;;1.38;;
11183;SDS011;5648;43.628;22.684;2022-07-10T08:19:22;1.38;;;1.27;;
11183;SDS011;5648;43.628;22.684;2022-07-10T08:21:48;3.53;;;1.40;;
11183;SDS011;5648;43.628;22.684;2022-07-10T08:24:13;2.78;;;1.50;;
11183;SDS011;5648;43.628;22.684;2022-07-10T08:26:39;2.90;;;1.33;;
11183;SDS011;5648;43.628;22.684;2022-07-10T08:29:05;2.60;;;1.48;;
11183;SDS011;5648;43.628;22.684;2022-07-10T08:31:31;2.15;;;1.25;;
11183;SDS011;5648;43.628;22.684;2022-07-10T08:33:58;1.80;;;1.20;;
11183;SDS011;5648;43.628;22.684;2022-07-10T08:36:24;3.40;;;1.50;;
11183;SDS011;5648;43.628;22.684;2022-07-10T08:38:51;1.70;;;1.40;;
11183;SDS011;5648;43.628;22.684;2022-07-10T08:41:20;2.15;;;1.40;;
11183;SDS011;5648;43.628;22.684;2022-07-10T08:43:50;4.32;;;1.10;;
11183;SDS011;5648;43.628;22.684;2022-07-10T08:46:15;7.18;;;1.50;;
11183;SDS011;5648;43.628;22.684;2022-07-10T08:48:42;1.50;;;1.40;;
11183;SDS011;5648;43.628;22.684;2022-07-10T08:51:12;1.65;;;1.10;;
11183;SDS011;5648;43.628;22.684;2022-07-10T08:54:08;1.40;;;1.30;;
11183;SDS011;5648;43.628;22.684;2022-07-10T08:56:34;1.30;;;1.20;;
11183;SDS011;5648;43.628;22.684;2022-07-10T08:59:04;7.60;;;1.73;;
11183;SDS011;5648;43.628;22.684;2022-07-10T09:01:30;2.58;;;1.33;;
11183;SDS011;5648;43.628;22.684;2022-07-10T09:03:56;2.92;;;1.33;;
11183;SDS011;5648;43.628;22.684;2022-07-10T09:06:21;3.60;;;1.27;;
11183;SDS011;5648;43.628;22.684;2022-07-10T09:09:03;4.00;;;1.45;;
11183;SDS011;5648;43.628;22.684;2022-07-10T09:11:30;2.15;;;1.30;;
11183;SDS011;5648;43.628;22.684;2022-07-10T09:14:00;2.25;;;1.10;;
11183;SDS011;5648;43.628;22.684;2022-07-10T09:16:33;2.55;;;1.40;;
11183;SDS011;5648;43.628;22.684;2022-07-10T09:21:45;3.00;;;1.20;;
11183;SDS011;5648;43.628;22.684;2022-07-10T09:24:14;1.40;;;1.30;;
11183;SDS011;5648;43.628;22.684;2022-07-10T09:26:58;1.95;;;1.10;;
11183;SDS011;5648;43.628;22.684;2022-07-10T09:29:31;1.52;;;1.23;;
11183;SDS011;5648;43.628;22.684;2022-07-10T09:32:13;2.67;;;1.30;;
11183;SDS011;5648;43.628;22.684;2022-07-10T09:39:52;1.30;;;1.20;;
11183;SDS011;5648;43.628;22.684;2022-07-10T09:42:28;1.20;;;1.10;;
11183;SDS011;5648;43.628;22.684;2022-07-10T09:47:41;1.15;;;1.00;;
11183;SDS011;5648;43.628;22.684;2022-07-10T09:50:29;0.93;;;0.93;;
11183;SDS011;5648;43.628;22.684;2022-07-10T09:53:05;1.65;;;1.13;;
11183;SDS011;5648;43.628;22.684;2022-07-10T09:55:33;2.72;;;1.25;;
11183;SDS011;5648;43.628;22.684;2022-07-10T09:58:01;7.97;;;4.55;;
11183;SDS011;5648;43.628;22.684;2022-07-10T10:00:38;1.95;;;1.50;;
11183;SDS011;5648;43.628;22.684;2022-07-10T10:03:06;2.42;;;1.88;;
11183;SDS011;5648;43.628;22.684;2022-07-10T10:05:43;6.03;;;1.40;;
11183;SDS011;5648;43.628;22.684;2022-07-10T10:08:21;2.15;;;1.50;;
11183;SDS011;5648;43.628;22.684;2022-07-10T10:11:00;3.22;;;1.40;;
11183;SDS011;5648;43.628;22.684;2022-07-10T10:13:27;3.08;;;1.60;;
11183;SDS011;5648;43.628;22.684;2022-07-10T10:15:53;2.35;;;1.45;;
11183;SDS011;5648;43.628;22.684;2022-07-10T10:18:21;5.47;;;1.63;;
11183;SDS011;5648;43.628;22.684;2022-07-10T10:20:49;2.97;;;1.90;;
11183;SDS011;5648;43.628;22.684;2022-07-10T10:23:17;2.17;;;1.60;;
11183;SDS011;5648;43.628;22.684;2022-07-10T10:25:48;2.10;;;1.42;;
11183;SDS011;5648;43.628;22.684;2022-07-10T10:28:14;1.90;;;1.80;;
11183;SDS011;5648;43.628;22.684;2022-07-10T10:30:45;1.92;;;1.30;;
11183;SDS011;5648;43.628;22.684;2022-07-10T10:36:12;4.07;;;1.77;;
11183;SDS011;5648;43.628;22.684;2022-07-10T10:39:14;10.05;;;2.00;;
11183;SDS011;5648;43.628;22.684;2022-07-10T10:49:21;1.38;;;1.27;;
11183;SDS011;5648;43.628;22.684;2022-07-10T10:52:08;1.33;;;1.23;;
11183;SDS011;5648;43.628;22.684;2022-07-10T10:59:57;2.75;;;1.20;;
11183;SDS011;5648;43.628;22.684;2022-07-10T11:02:29;2.60;;;1.27;;
11183;SDS011;5648;43.628;22.684;2022-07-10T11:12:58;1.63;;;1.40;;
11183;SDS011;5648;43.628;22.684;2022-07-10T11:15:25;2.28;;;2.03;;
11183;SDS011;5648;43.628;22.684;2022-07-10T11:17:55;2.50;;;1.55;;
11183;SDS011;5648;43.628;22.684;2022-07-10T11:20:24;1.60;;;1.50;;
11183;SDS011;5648;43.628;22.684;2022-07-10T11:23:24;1.83;;;1.23;;
11183;SDS011;5648;43.628;22.684;2022-07-10T11:31:02;1.83;;;1.30;;
11183;SDS011;5648;43.628;22.684;2022-07-10T11:33:28;1.60;;;1.50;;
11183;SDS011;5648;43.628;22.684;2022-07-10T11:39:08;3.47;;;2.60;;
11183;SDS011;5648;43.628;22.684;2022-07-10T11:41:43;3.50;;;1.50;;
11183;SDS011;5648;43.628;22.684;2022-07-10T11:44:14;2.33;;;1.83;;
11183;SDS011;5648;43.628;22.684;2022-07-10T11:46:41;6.00;;;1.60;;
11183;SDS011;5648;43.628;22.684;2022-07-10T11:49:09;1.60;;;1.50;;
11183;SDS011;5648;43.628;22.684;2022-07-10T11:51:36;1.40;;;1.30;;
11183;SDS011;5648;43.628;22.684;2022-07-10T11:54:04;1.33;;;1.20;;
11183;SDS011;5648;43.628;22.684;2022-07-10T11:56:41;1.88;;;1.50;;
11183;SDS011;5648;43.628;22.684;2022-07-10T11:59:13;1.90;;;1.50;;
11183;SDS011;5648;43.628;22.684;2022-07-10T12:01:50;2.55;;;1.48;;
11183;SDS011;5648;43.628;22.684;2022-07-10T12:04:18;2.42;;;1.45;;
11183;SDS011;5648;43.628;22.684;2022-07-10T12:06:49;1.52;;;1.42;;
11183;SDS011;5648;43.628;22.684;2022-07-10T12:09:19;3.60;;;1.50;;
11183;SDS011;5648;43.628;22.684;2022-07-10T12:11:59;1.40;;;1.30;;
11183;SDS011;5648;43.628;22.684;2022-07-10T12:14:34;3.08;;;2.78;;
11183;SDS011;5648;43.628;22.684;2022-07-10T12:17:00;2.90;;;1.35;;
11183;SDS011;5648;43.628;22.684;2022-07-10T12:19:30;2.33;;;1.13;;
11183;SDS011;5648;43.628;22.684;2022-07-10T12:22:01;3.78;;;1.45;;
11183;SDS011;5648;43.628;22.684;2022-07-10T12:24:29;1.40;;;1.30;;
11183;SDS011;5648;43.628;22.684;2022-07-10T12:26:55;1.88;;;1.35;;
11183;SDS011;5648;43.628;22.684;2022-07-10T12:29:24;2.78;;;1.50;;
11183;SDS011;5648;43.628;22.684;2022-07-10T12:31:52;1.92;;;1.40;;
11183;SDS011;5648;43.628;22.684;2022-07-10T12:34:20;3.35;;;1.70;;
11183;SDS011;5648;43.628;22.684;2022-07-10T12:36:58;1.80;;;1.52;;
11183;SDS011;5648;43.628;22.684;2022-07-10T12:39:24;1.50;;;1.40;;
11183;SDS011;5648;43.628;22.684;2022-07-10T12:41:54;1.92;;;1.50;;
11183;SDS011;5648;43.628;22.684;2022-07-10T12:45:04;1.65;;;1.55;;
11183;SDS011;5648;43.628;22.684;2022-07-10T12:47:19;2.33;;;1.58;;
11183;SDS011;5648;43.628;22.684;2022-07-10T12:52:19;1.85;;;1.45;;
11183;SDS011;5648;43.628;22.684;2022-07-10T12:54:45;3.08;;;1.58;;
11183;SDS011;5648;43.628;22.684;2022-07-10T12:57:10;2.28;;;1.80;;
11183;SDS011;5648;43.628;22.684;2022-07-10T12:59:36;2.10;;;1.50;;
11183;SDS011;5648;43.628;22.684;2022-07-10T13:04:50;1.65;;;1.55;;
11183;SDS011;5648;43.628;22.684;2022-07-10T13:07:17;4.30;;;1.70;;
11183;SDS011;5648;43.628;22.684;2022-07-10T13:09:42;1.48;;;1.38;;
11183;SDS011;5648;43.628;22.684;2022-07-10T13:12:09;2.83;;;1.65;;
11183;SDS011;5648;43.628;22.684;2022-07-10T13:14:35;2.35;;;1.70;;
11183;SDS011;5648;43.628;22.684;2022-07-10T13:17:01;2.33;;;1.83;;
11183;SDS011;5648;43.628;22.684;2022-07-10T13:19:27;3.67;;;2.10;;
11183;SDS011;5648;43.628;22.684;2022-07-10T13:21:52;3.58;;;2.03;;
11183;SDS011;5648;43.628;22.684;2022-07-10T13:24:18;2.22;;;2.08;;
11183;SDS011;5648;43.628;22.684;2022-07-10T13:26:43;4.03;;;2.28;;
11183;SDS011;5648;43.628;22.684;2022-07-10T13:29:09;2.60;;;2.30;;
11183;SDS011;5648;43.628;22.684;2022-07-10T13:31:34;3.00;;;2.08;;
11183;SDS011;5648;43.628;22.684;2022-07-10T13:34:00;2.10;;;2.00;;
11183;SDS011;5648;43.628;22.684;2022-07-10T13:36:25;6.65;;;2.55;;
11183;SDS011;5648;43.628;22.684;2022-07-10T13:38:51;2.55;;;2.30;;
11183;SDS011;5648;43.628;22.684;2022-07-10T13:41:18;2.50;;;2.30;;
11183;SDS011;5648;43.628;22.684;2022-07-10T13:43:44;2.47;;;2.38;;
11183;SDS011;5648;43.628;22.684;2022-07-10T13:46:10;5.85;;;2.83;;
11183;SDS011;5648;43.628;22.684;2022-07-10T13:48:35;3.47;;;2.42;;
11183;SDS011;5648;43.628;22.684;2022-07-10T13:51:01;3.28;;;2.40;;
11183;SDS011;5648;43.628;22.684;2022-07-10T13:53:27;4.30;;;3.55;;
11183;SDS011;5648;43.628;22.684;2022-07-10T13:55:52;5.20;;;2.70;;
11183;SDS011;5648;43.628;22.684;2022-07-10T13:58:18;3.80;;;2.70;;
11183;SDS011;5648;43.628;22.684;2022-07-10T14:00:45;2.70;;;2.50;;
11183;SDS011;5648;43.628;22.684;2022-07-10T14:03:10;3.78;;;2.38;;
11183;SDS011;5648;43.628;22.684;2022-07-10T14:05:36;2.45;;;2.35;;
11183;SDS011;5648;43.628;22.684;2022-07-10T14:08:02;2.53;;;2.35;;
11183;SDS011;5648;43.628;22.684;2022-07-10T14:10:28;2.50;;;2.30;;
11183;SDS011;5648;43.628;22.684;2022-07-10T14:12:54;5.45;;;4.95;;
11183;SDS011;5648;43.628;22.684;2022-07-10T14:15:20;2.60;;;2.40;;
11183;SDS011;5648;43.628;22.684;2022-07-10T14:17:46;3.58;;;2.25;;
11183;SDS011;5648;43.628;22.684;2022-07-10T14:20:11;2.85;;;1.92;;
11183;SDS011;5648;43.628;22.684;2022-07-10T14:22:38;2.00;;;1.90;;
11183;SDS011;5648;43.628;22.684;2022-07-10T14:25:04;3.92;;;3.63;;
11183;SDS011;5648;43.628;22.684;2022-07-10T14:27:30;3.35;;;2.22;;
11183;SDS011;5648;43.628;22.684;2022-07-10T14:29:57;5.50;;;2.75;;
11183;SDS011;5648;43.628;22.684;2022-07-10T14:32:23;4.85;;;1.83;;
11183;SDS011;5648;43.628;22.684;2022-07-10T14:34:49;2.90;;;1.98;;
11183;SDS011;5648;43.628;22.684;2022-07-10T14:37:15;1.98;;;1.80;;
11183;SDS011;5648;43.628;22.684;2022-07-10T14:39:40;7.53;;;3.90;;
11183;SDS011;5648;43.628;22.684;2022-07-10T14:42:06;3.05;;;2.78;;
11183;SDS011;5648;43.628;22.684;2022-07-10T14:44:32;8.45;;;4.55;;
11183;SDS011;5648;43.628;22.684;2022-07-10T14:46:58;4.57;;;1.90;;
11183;SDS011;5648;43.628;22.684;2022-07-10T14:49:24;15.60;;;9.65;;
11183;SDS011;5648;43.628;22.684;2022-07-10T14:51:49;7.13;;;4.75;;
11183;SDS011;5648;43.628;22.684;2022-07-10T14:54:15;6.50;;;4.57;;
11183;SDS011;5648;43.628;22.684;2022-07-10T14:56:41;2.85;;;2.53;;
11183;SDS011;5648;43.628;22.684;2022-07-10T14:59:08;5.43;;;3.75;;
11183;SDS011;5648;43.628;22.684;2022-07-10T15:01:33;3.80;;;1.95;;
11183;SDS011;5648;43.628;22.684;2022-07-10T15:03:59;1.33;;;1.25;;
11183;SDS011;5648;43.628;22.684;2022-07-10T15:06:24;1.52;;;1.40;;
11183;SDS011;5648;43.628;22.684;2022-07-10T15:08:50;5.32;;;1.58;;
11183;SDS011;5648;43.628;22.684;2022-07-10T15:11:19;2.20;;;1.50;;
11183;SDS011;5648;43.628;22.684;2022-07-10T15:13:49;1.70;;;1.60;;
11183;SDS011;5648;43.628;22.684;2022-07-10T15:16:16;1.58;;;1.30;;
11183;SDS011;5648;43.628;22.684;2022-07-10T15:18:42;1.50;;;1.40;;
11183;SDS011;5648;43.628;22.684;2022-07-10T15:21:08;3.13;;;1.40;;
11183;SDS011;5648;43.628;22.684;2022-07-10T15:23:34;3.80;;;1.42;;
11183;SDS011;5648;43.628;22.684;2022-07-10T15:25:59;1.38;;;1.30;;
11183;SDS011;5648;43.628;22.684;2022-07-10T15:28:26;1.52;;;1.42;;
11183;SDS011;5648;43.628;22.684;2022-07-10T15:30:54;2.63;;;2.05;;
11183;SDS011;5648;43.628;22.684;2022-07-10T15:33:21;3.38;;;1.33;;
11183;SDS011;5648;43.628;22.684;2022-07-10T15:35:47;3.60;;;1.60;;
11183;SDS011;5648;43.628;22.684;2022-07-10T15:38:13;3.65;;;1.30;;